sensor_id;sensor_type;location;lat;lon;timestamp;P1;durP1;ratioP1;P2;durP2;ratioP2
73650;SDS011;61944;52.538;6.108;2023-01-25T00:01:43;65.47;;;30.15;;
73650;SDS011;61944;52.538;6.108;2023-01-25T00:04:08;61.83;;;30.48;;
73650;SDS011;61944;52.538;6.108;2023-01-25T00:06:34;60.95;;;29.23;;
73650;SDS011;61944;52.538;6.108;2023-01-25T00:08:59;62.53;;;30.15;;
73650;SDS011;61944;52.538;6.108;2023-01-25T00:11:25;60.33;;;29.50;;
73650;SDS011;61944;52.538;6.108;2023-01-25T00:13:53;57.80;;;27.65;;
73650;SDS011;61944;52.538;6.108;2023-01-25T00:16:20;65.47;;;30.20;;
73650;SDS011;61944;52.538;6.108;2023-01-25T00:18:46;62.45;;;29.85;;
73650;SDS011;61944;52.538;6.108;2023-01-25T00:21:13;63.42;;;29.95;;
73650;SDS011;61944;52.538;6.108;2023-01-25T00:23:43;55.28;;;27.30;;
73650;SDS011;61944;52.538;6.108;2023-01-25T00:26:08;63.63;;;29.98;;
73650;SDS011;61944;52.538;6.108;2023-01-25T00:28:34;61.00;;;28.30;;
73650;SDS011;61944;52.538;6.108;2023-01-25T00:31:00;59.75;;;28.17;;
73650;SDS011;61944;52.538;6.108;2023-01-25T00:36:01;60.10;;;29.02;;
73650;SDS011;61944;52.538;6.108;2023-01-25T00:38:28;60.80;;;27.67;;
73650;SDS011;61944;52.538;6.108;2023-01-25T00:40:58;60.15;;;28.60;;
73650;SDS011;61944;52.538;6.108;2023-01-25T00:43:24;59.47;;;29.10;;
73650;SDS011;61944;52.538;6.108;2023-01-25T00:45:49;69.38;;;29.83;;
73650;SDS011;61944;52.538;6.108;2023-01-25T00:48:15;61.92;;;28.73;;
73650;SDS011;61944;52.538;6.108;2023-01-25T00:50:40;62.28;;;28.17;;
73650;SDS011;61944;52.538;6.108;2023-01-25T00:53:05;66.70;;;30.48;;
73650;SDS011;61944;52.538;6.108;2023-01-25T00:55:31;57.58;;;27.77;;
73650;SDS011;61944;52.538;6.108;2023-01-25T00:57:56;62.38;;;28.83;;
73650;SDS011;61944;52.538;6.108;2023-01-25T01:00:21;64.30;;;30.23;;
73650;SDS011;61944;52.538;6.108;2023-01-25T01:02:47;58.70;;;28.52;;
73650;SDS011;61944;52.538;6.108;2023-01-25T01:05:12;61.17;;;28.80;;
73650;SDS011;61944;52.538;6.108;2023-01-25T01:07:37;62.38;;;30.80;;
73650;SDS011;61944;52.538;6.108;2023-01-25T01:10:03;60.03;;;28.58;;
73650;SDS011;61944;52.538;6.108;2023-01-25T01:12:29;62.92;;;30.17;;
73650;SDS011;61944;52.538;6.108;2023-01-25T01:14:54;63.28;;;29.00;;
73650;SDS011;61944;52.538;6.108;2023-01-25T01:17:21;64.22;;;29.75;;
73650;SDS011;61944;52.538;6.108;2023-01-25T01:19:46;64.32;;;28.65;;
73650;SDS011;61944;52.538;6.108;2023-01-25T01:22:11;64.78;;;29.48;;
73650;SDS011;61944;52.538;6.108;2023-01-25T01:24:37;61.90;;;31.35;;
73650;SDS011;61944;52.538;6.108;2023-01-25T01:27:02;66.78;;;30.05;;
73650;SDS011;61944;52.538;6.108;2023-01-25T01:29:28;65.85;;;28.52;;
73650;SDS011;61944;52.538;6.108;2023-01-25T01:31:53;60.28;;;27.98;;
73650;SDS011;61944;52.538;6.108;2023-01-25T01:34:19;62.60;;;30.40;;
73650;SDS011;61944;52.538;6.108;2023-01-25T01:36:45;59.88;;;27.27;;
73650;SDS011;61944;52.538;6.108;2023-01-25T01:39:10;60.13;;;27.33;;
73650;SDS011;61944;52.538;6.108;2023-01-25T01:41:36;71.65;;;29.85;;
73650;SDS011;61944;52.538;6.108;2023-01-25T01:44:02;64.68;;;30.00;;
73650;SDS011;61944;52.538;6.108;2023-01-25T01:46:30;61.70;;;28.90;;
73650;SDS011;61944;52.538;6.108;2023-01-25T01:57:24;62.00;;;27.77;;
73650;SDS011;61944;52.538;6.108;2023-01-25T02:00:06;57.30;;;25.83;;
73650;SDS011;61944;52.538;6.108;2023-01-25T02:02:36;56.35;;;26.67;;
73650;SDS011;61944;52.538;6.108;2023-01-25T02:05:03;62.85;;;28.90;;
73650;SDS011;61944;52.538;6.108;2023-01-25T02:07:31;60.65;;;26.23;;
73650;SDS011;61944;52.538;6.108;2023-01-25T02:09:58;54.60;;;25.45;;
73650;SDS011;61944;52.538;6.108;2023-01-25T02:12:24;58.45;;;30.10;;
73650;SDS011;61944;52.538;6.108;2023-01-25T02:14:51;59.92;;;28.67;;
73650;SDS011;61944;52.538;6.108;2023-01-25T02:17:27;54.88;;;26.80;;
73650;SDS011;61944;52.538;6.108;2023-01-25T02:22:41;58.20;;;27.23;;
73650;SDS011;61944;52.538;6.108;2023-01-25T02:25:15;60.65;;;29.05;;
73650;SDS011;61944;52.538;6.108;2023-01-25T02:27:43;52.33;;;27.38;;
73650;SDS011;61944;52.538;6.108;2023-01-25T02:30:15;61.60;;;27.73;;
73650;SDS011;61944;52.538;6.108;2023-01-25T02:32:40;65.65;;;30.50;;
73650;SDS011;61944;52.538;6.108;2023-01-25T02:35:06;58.97;;;27.55;;
73650;SDS011;61944;52.538;6.108;2023-01-25T02:37:32;63.67;;;27.75;;
73650;SDS011;61944;52.538;6.108;2023-01-25T02:39:57;56.65;;;27.25;;
73650;SDS011;61944;52.538;6.108;2023-01-25T02:42:23;59.60;;;28.55;;
73650;SDS011;61944;52.538;6.108;2023-01-25T02:44:48;66.22;;;28.30;;
73650;SDS011;61944;52.538;6.108;2023-01-25T02:47:14;64.13;;;28.60;;
73650;SDS011;61944;52.538;6.108;2023-01-25T02:49:40;62.17;;;30.02;;
73650;SDS011;61944;52.538;6.108;2023-01-25T02:52:05;60.97;;;25.95;;
73650;SDS011;61944;52.538;6.108;2023-01-25T02:54:31;58.63;;;27.08;;
73650;SDS011;61944;52.538;6.108;2023-01-25T02:56:56;62.05;;;28.33;;
73650;SDS011;61944;52.538;6.108;2023-01-25T02:59:21;62.55;;;28.70;;
73650;SDS011;61944;52.538;6.108;2023-01-25T03:01:47;59.67;;;26.95;;
73650;SDS011;61944;52.538;6.108;2023-01-25T03:04:14;59.90;;;28.50;;
73650;SDS011;61944;52.538;6.108;2023-01-25T03:06:39;64.95;;;29.48;;
73650;SDS011;61944;52.538;6.108;2023-01-25T03:09:06;60.55;;;27.55;;
73650;SDS011;61944;52.538;6.108;2023-01-25T03:11:33;61.97;;;28.63;;
73650;SDS011;61944;52.538;6.108;2023-01-25T03:13:59;56.55;;;27.08;;
73650;SDS011;61944;52.538;6.108;2023-01-25T03:16:24;62.78;;;31.13;;
73650;SDS011;61944;52.538;6.108;2023-01-25T03:18:51;64.82;;;28.23;;
73650;SDS011;61944;52.538;6.108;2023-01-25T03:21:18;59.90;;;27.85;;
73650;SDS011;61944;52.538;6.108;2023-01-25T03:23:45;67.07;;;28.88;;
73650;SDS011;61944;52.538;6.108;2023-01-25T03:26:13;62.60;;;29.10;;
73650;SDS011;61944;52.538;6.108;2023-01-25T03:28:40;67.10;;;29.27;;
73650;SDS011;61944;52.538;6.108;2023-01-25T03:31:06;63.88;;;28.92;;
73650;SDS011;61944;52.538;6.108;2023-01-25T03:33:33;64.20;;;28.65;;
73650;SDS011;61944;52.538;6.108;2023-01-25T03:35:59;66.13;;;29.13;;
73650;SDS011;61944;52.538;6.108;2023-01-25T03:38:25;62.40;;;27.75;;
73650;SDS011;61944;52.538;6.108;2023-01-25T03:40:50;60.65;;;28.08;;
73650;SDS011;61944;52.538;6.108;2023-01-25T03:43:16;64.45;;;29.25;;
73650;SDS011;61944;52.538;6.108;2023-01-25T03:45:42;66.25;;;30.80;;
73650;SDS011;61944;52.538;6.108;2023-01-25T03:48:07;63.03;;;28.33;;
73650;SDS011;61944;52.538;6.108;2023-01-25T03:50:33;65.10;;;30.02;;
73650;SDS011;61944;52.538;6.108;2023-01-25T03:52:58;59.65;;;27.80;;
73650;SDS011;61944;52.538;6.108;2023-01-25T03:55:30;63.33;;;30.42;;
73650;SDS011;61944;52.538;6.108;2023-01-25T03:57:55;60.47;;;27.88;;
73650;SDS011;61944;52.538;6.108;2023-01-25T04:00:21;64.55;;;29.70;;
73650;SDS011;61944;52.538;6.108;2023-01-25T04:02:46;58.35;;;27.63;;
73650;SDS011;61944;52.538;6.108;2023-01-25T04:05:12;61.95;;;27.90;;
73650;SDS011;61944;52.538;6.108;2023-01-25T04:07:37;66.45;;;28.95;;
73650;SDS011;61944;52.538;6.108;2023-01-25T04:10:03;68.28;;;31.25;;
73650;SDS011;61944;52.538;6.108;2023-01-25T04:12:29;64.22;;;30.40;;
73650;SDS011;61944;52.538;6.108;2023-01-25T04:14:55;62.35;;;29.15;;
73650;SDS011;61944;52.538;6.108;2023-01-25T04:17:20;67.63;;;29.75;;
73650;SDS011;61944;52.538;6.108;2023-01-25T04:19:45;61.33;;;28.17;;
73650;SDS011;61944;52.538;6.108;2023-01-25T04:22:11;62.63;;;30.13;;
73650;SDS011;61944;52.538;6.108;2023-01-25T04:24:37;73.63;;;31.55;;
73650;SDS011;61944;52.538;6.108;2023-01-25T04:27:02;66.25;;;29.58;;
73650;SDS011;61944;52.538;6.108;2023-01-25T04:29:27;68.90;;;30.98;;
73650;SDS011;61944;52.538;6.108;2023-01-25T04:31:53;58.90;;;26.42;;
73650;SDS011;61944;52.538;6.108;2023-01-25T04:34:18;71.00;;;30.65;;
73650;SDS011;61944;52.538;6.108;2023-01-25T04:36:43;62.17;;;27.55;;
73650;SDS011;61944;52.538;6.108;2023-01-25T04:39:09;64.85;;;29.25;;
73650;SDS011;61944;52.538;6.108;2023-01-25T04:41:34;66.82;;;28.58;;
73650;SDS011;61944;52.538;6.108;2023-01-25T04:44:00;60.25;;;27.27;;
73650;SDS011;61944;52.538;6.108;2023-01-25T04:46:25;56.25;;;27.63;;
73650;SDS011;61944;52.538;6.108;2023-01-25T04:48:50;69.70;;;30.15;;
73650;SDS011;61944;52.538;6.108;2023-01-25T04:51:15;65.72;;;28.70;;
73650;SDS011;61944;52.538;6.108;2023-01-25T04:53:41;62.20;;;28.10;;
73650;SDS011;61944;52.538;6.108;2023-01-25T04:56:06;58.88;;;25.30;;
73650;SDS011;61944;52.538;6.108;2023-01-25T04:58:32;58.97;;;27.55;;
73650;SDS011;61944;52.538;6.108;2023-01-25T05:01:02;58.60;;;26.73;;
73650;SDS011;61944;52.538;6.108;2023-01-25T05:03:28;61.00;;;26.95;;
73650;SDS011;61944;52.538;6.108;2023-01-25T05:05:54;61.10;;;28.02;;
73650;SDS011;61944;52.538;6.108;2023-01-25T05:08:19;58.40;;;26.13;;
73650;SDS011;61944;52.538;6.108;2023-01-25T05:10:45;57.22;;;26.40;;
73650;SDS011;61944;52.538;6.108;2023-01-25T05:13:10;61.65;;;25.98;;
73650;SDS011;61944;52.538;6.108;2023-01-25T05:15:35;57.63;;;26.67;;
73650;SDS011;61944;52.538;6.108;2023-01-25T05:18:01;56.22;;;25.30;;
73650;SDS011;61944;52.538;6.108;2023-01-25T05:20:27;45.50;;;22.75;;
73650;SDS011;61944;52.538;6.108;2023-01-25T05:22:52;55.55;;;27.15;;
73650;SDS011;61944;52.538;6.108;2023-01-25T05:25:18;51.85;;;24.58;;
73650;SDS011;61944;52.538;6.108;2023-01-25T05:28:05;51.60;;;25.58;;
73650;SDS011;61944;52.538;6.108;2023-01-25T05:30:31;49.42;;;24.08;;
73650;SDS011;61944;52.538;6.108;2023-01-25T05:32:57;48.97;;;26.02;;
73650;SDS011;61944;52.538;6.108;2023-01-25T05:35:22;49.78;;;23.98;;
73650;SDS011;61944;52.538;6.108;2023-01-25T05:37:48;51.30;;;24.23;;
73650;SDS011;61944;52.538;6.108;2023-01-25T05:40:13;50.47;;;23.48;;
73650;SDS011;61944;52.538;6.108;2023-01-25T05:42:38;47.45;;;22.77;;
73650;SDS011;61944;52.538;6.108;2023-01-25T05:45:04;45.70;;;22.58;;
73650;SDS011;61944;52.538;6.108;2023-01-25T05:47:30;56.83;;;24.95;;
73650;SDS011;61944;52.538;6.108;2023-01-25T05:49:55;47.75;;;23.13;;
73650;SDS011;61944;52.538;6.108;2023-01-25T05:52:21;51.75;;;23.55;;
73650;SDS011;61944;52.538;6.108;2023-01-25T05:54:47;54.88;;;24.98;;
73650;SDS011;61944;52.538;6.108;2023-01-25T05:57:13;53.38;;;24.45;;
73650;SDS011;61944;52.538;6.108;2023-01-25T05:59:38;51.80;;;23.77;;
73650;SDS011;61944;52.538;6.108;2023-01-25T06:02:04;47.72;;;21.65;;
73650;SDS011;61944;52.538;6.108;2023-01-25T06:04:29;53.88;;;23.40;;
73650;SDS011;61944;52.538;6.108;2023-01-25T06:06:55;48.08;;;22.73;;
73650;SDS011;61944;52.538;6.108;2023-01-25T06:09:20;52.85;;;24.55;;
73650;SDS011;61944;52.538;6.108;2023-01-25T06:11:46;46.75;;;24.30;;
73650;SDS011;61944;52.538;6.108;2023-01-25T06:14:11;49.63;;;23.17;;
73650;SDS011;61944;52.538;6.108;2023-01-25T06:16:37;52.28;;;23.05;;
73650;SDS011;61944;52.538;6.108;2023-01-25T06:19:03;52.30;;;23.67;;
73650;SDS011;61944;52.538;6.108;2023-01-25T06:21:30;49.85;;;23.55;;
73650;SDS011;61944;52.538;6.108;2023-01-25T06:23:55;49.47;;;23.73;;
73650;SDS011;61944;52.538;6.108;2023-01-25T06:26:21;47.25;;;23.48;;
73650;SDS011;61944;52.538;6.108;2023-01-25T06:28:46;52.15;;;23.80;;
73650;SDS011;61944;52.538;6.108;2023-01-25T06:31:13;46.78;;;21.83;;
73650;SDS011;61944;52.538;6.108;2023-01-25T06:33:40;50.08;;;23.60;;
73650;SDS011;61944;52.538;6.108;2023-01-25T06:36:09;55.28;;;24.00;;
73650;SDS011;61944;52.538;6.108;2023-01-25T06:38:36;46.88;;;21.77;;
73650;SDS011;61944;52.538;6.108;2023-01-25T06:41:02;47.83;;;22.45;;
73650;SDS011;61944;52.538;6.108;2023-01-25T06:43:30;50.15;;;21.83;;
73650;SDS011;61944;52.538;6.108;2023-01-25T06:46:00;46.67;;;20.92;;
73650;SDS011;61944;52.538;6.108;2023-01-25T06:48:27;47.53;;;23.85;;
73650;SDS011;61944;52.538;6.108;2023-01-25T06:50:56;46.50;;;21.23;;
73650;SDS011;61944;52.538;6.108;2023-01-25T06:53:26;44.10;;;22.15;;
73650;SDS011;61944;52.538;6.108;2023-01-25T06:55:56;49.97;;;22.92;;
73650;SDS011;61944;52.538;6.108;2023-01-25T06:58:23;47.58;;;21.85;;
73650;SDS011;61944;52.538;6.108;2023-01-25T07:00:49;52.30;;;23.40;;
73650;SDS011;61944;52.538;6.108;2023-01-25T07:03:14;52.22;;;23.25;;
73650;SDS011;61944;52.538;6.108;2023-01-25T07:05:40;47.90;;;23.60;;
73650;SDS011;61944;52.538;6.108;2023-01-25T07:08:05;49.47;;;24.05;;
73650;SDS011;61944;52.538;6.108;2023-01-25T07:10:30;53.38;;;24.45;;
73650;SDS011;61944;52.538;6.108;2023-01-25T07:12:55;54.88;;;23.77;;
73650;SDS011;61944;52.538;6.108;2023-01-25T07:15:21;44.67;;;20.80;;
73650;SDS011;61944;52.538;6.108;2023-01-25T07:17:47;54.33;;;24.55;;
73650;SDS011;61944;52.538;6.108;2023-01-25T07:20:13;43.20;;;20.20;;
73650;SDS011;61944;52.538;6.108;2023-01-25T07:22:38;51.85;;;24.98;;
73650;SDS011;61944;52.538;6.108;2023-01-25T07:25:03;51.58;;;23.63;;
73650;SDS011;61944;52.538;6.108;2023-01-25T07:27:32;55.88;;;23.08;;
73650;SDS011;61944;52.538;6.108;2023-01-25T07:29:57;50.10;;;22.75;;
73650;SDS011;61944;52.538;6.108;2023-01-25T07:32:23;49.05;;;23.25;;
73650;SDS011;61944;52.538;6.108;2023-01-25T07:34:48;50.55;;;22.70;;
73650;SDS011;61944;52.538;6.108;2023-01-25T07:37:14;52.92;;;23.70;;
73650;SDS011;61944;52.538;6.108;2023-01-25T07:39:39;51.67;;;22.40;;
73650;SDS011;61944;52.538;6.108;2023-01-25T07:42:11;49.13;;;23.65;;
73650;SDS011;61944;52.538;6.108;2023-01-25T07:44:36;48.17;;;23.83;;
73650;SDS011;61944;52.538;6.108;2023-01-25T07:47:02;54.40;;;24.35;;
73650;SDS011;61944;52.538;6.108;2023-01-25T07:49:27;45.75;;;22.60;;
73650;SDS011;61944;52.538;6.108;2023-01-25T07:51:52;48.90;;;23.00;;
73650;SDS011;61944;52.538;6.108;2023-01-25T07:54:18;49.28;;;22.13;;
73650;SDS011;61944;52.538;6.108;2023-01-25T07:56:43;46.33;;;22.58;;
73650;SDS011;61944;52.538;6.108;2023-01-25T07:59:08;48.45;;;22.38;;
73650;SDS011;61944;52.538;6.108;2023-01-25T08:01:34;48.10;;;22.48;;
73650;SDS011;61944;52.538;6.108;2023-01-25T08:04:01;52.25;;;24.60;;
73650;SDS011;61944;52.538;6.108;2023-01-25T08:06:29;54.92;;;23.95;;
73650;SDS011;61944;52.538;6.108;2023-01-25T08:08:59;47.58;;;20.70;;
73650;SDS011;61944;52.538;6.108;2023-01-25T08:11:27;46.65;;;21.95;;
73650;SDS011;61944;52.538;6.108;2023-01-25T08:13:54;47.58;;;20.88;;
73650;SDS011;61944;52.538;6.108;2023-01-25T08:16:21;51.58;;;23.63;;
73650;SDS011;61944;52.538;6.108;2023-01-25T08:18:51;48.08;;;23.15;;
73650;SDS011;61944;52.538;6.108;2023-01-25T08:21:19;55.13;;;24.67;;
73650;SDS011;61944;52.538;6.108;2023-01-25T08:23:45;54.70;;;23.73;;
73650;SDS011;61944;52.538;6.108;2023-01-25T08:26:11;53.15;;;23.60;;
73650;SDS011;61944;52.538;6.108;2023-01-25T08:28:38;51.50;;;23.23;;
73650;SDS011;61944;52.538;6.108;2023-01-25T08:31:14;53.25;;;25.17;;
73650;SDS011;61944;52.538;6.108;2023-01-25T08:33:41;60.25;;;25.10;;
73650;SDS011;61944;52.538;6.108;2023-01-25T08:36:08;51.60;;;23.17;;
73650;SDS011;61944;52.538;6.108;2023-01-25T08:38:35;49.25;;;21.42;;
73650;SDS011;61944;52.538;6.108;2023-01-25T08:41:19;53.55;;;23.42;;
73650;SDS011;61944;52.538;6.108;2023-01-25T08:43:44;58.63;;;25.38;;
73650;SDS011;61944;52.538;6.108;2023-01-25T08:46:11;56.15;;;23.85;;
73650;SDS011;61944;52.538;6.108;2023-01-25T08:48:38;64.40;;;26.23;;
73650;SDS011;61944;52.538;6.108;2023-01-25T08:51:04;53.17;;;23.70;;
73650;SDS011;61944;52.538;6.108;2023-01-25T08:53:32;62.75;;;25.30;;
73650;SDS011;61944;52.538;6.108;2023-01-25T08:56:01;56.10;;;23.92;;
73650;SDS011;61944;52.538;6.108;2023-01-25T08:58:28;55.03;;;24.48;;
73650;SDS011;61944;52.538;6.108;2023-01-25T09:00:53;58.65;;;24.67;;
73650;SDS011;61944;52.538;6.108;2023-01-25T09:03:25;64.00;;;26.47;;
73650;SDS011;61944;52.538;6.108;2023-01-25T09:05:52;59.47;;;25.45;;
73650;SDS011;61944;52.538;6.108;2023-01-25T09:08:18;61.13;;;26.20;;
73650;SDS011;61944;52.538;6.108;2023-01-25T09:10:43;62.03;;;25.80;;
73650;SDS011;61944;52.538;6.108;2023-01-25T09:13:09;62.60;;;23.75;;
73650;SDS011;61944;52.538;6.108;2023-01-25T09:15:34;59.28;;;28.38;;
73650;SDS011;61944;52.538;6.108;2023-01-25T09:17:59;61.72;;;24.90;;
73650;SDS011;61944;52.538;6.108;2023-01-25T09:20:25;59.40;;;26.00;;
73650;SDS011;61944;52.538;6.108;2023-01-25T09:22:50;60.42;;;25.17;;
73650;SDS011;61944;52.538;6.108;2023-01-25T09:25:15;62.83;;;26.25;;
73650;SDS011;61944;52.538;6.108;2023-01-25T09:27:41;58.63;;;25.23;;
73650;SDS011;61944;52.538;6.108;2023-01-25T09:30:07;56.78;;;24.90;;
73650;SDS011;61944;52.538;6.108;2023-01-25T09:32:34;57.80;;;24.88;;
73650;SDS011;61944;52.538;6.108;2023-01-25T09:34:59;60.95;;;26.00;;
73650;SDS011;61944;52.538;6.108;2023-01-25T09:37:25;62.38;;;24.77;;
73650;SDS011;61944;52.538;6.108;2023-01-25T09:39:50;68.03;;;27.80;;
73650;SDS011;61944;52.538;6.108;2023-01-25T09:50:48;55.95;;;23.98;;
73650;SDS011;61944;52.538;6.108;2023-01-25T09:53:38;62.38;;;25.55;;
73650;SDS011;61944;52.538;6.108;2023-01-25T09:56:08;52.40;;;21.67;;
73650;SDS011;61944;52.538;6.108;2023-01-25T09:58:49;56.00;;;24.50;;
73650;SDS011;61944;52.538;6.108;2023-01-25T10:01:22;56.83;;;22.92;;
73650;SDS011;61944;52.538;6.108;2023-01-25T10:06:19;59.63;;;24.42;;
73650;SDS011;61944;52.538;6.108;2023-01-25T10:09:02;55.80;;;21.58;;
73650;SDS011;61944;52.538;6.108;2023-01-25T10:11:35;55.90;;;22.75;;
73650;SDS011;61944;52.538;6.108;2023-01-25T10:14:02;61.53;;;24.45;;
73650;SDS011;61944;52.538;6.108;2023-01-25T10:16:39;63.05;;;26.02;;
73650;SDS011;61944;52.538;6.108;2023-01-25T10:19:26;61.58;;;25.77;;
73650;SDS011;61944;52.538;6.108;2023-01-25T10:22:09;61.58;;;24.15;;
73650;SDS011;61944;52.538;6.108;2023-01-25T10:24:56;65.05;;;26.77;;
73650;SDS011;61944;52.538;6.108;2023-01-25T10:33:22;56.58;;;24.95;;
73650;SDS011;61944;52.538;6.108;2023-01-25T10:35:48;62.05;;;25.30;;
73650;SDS011;61944;52.538;6.108;2023-01-25T10:38:25;60.67;;;26.67;;
73650;SDS011;61944;52.538;6.108;2023-01-25T10:41:00;63.70;;;27.17;;
73650;SDS011;61944;52.538;6.108;2023-01-25T10:43:31;58.97;;;23.70;;
73650;SDS011;61944;52.538;6.108;2023-01-25T10:45:56;65.13;;;26.48;;
73650;SDS011;61944;52.538;6.108;2023-01-25T10:48:23;62.20;;;25.30;;
73650;SDS011;61944;52.538;6.108;2023-01-25T10:50:53;59.92;;;25.30;;
73650;SDS011;61944;52.538;6.108;2023-01-25T10:53:30;62.15;;;26.52;;
73650;SDS011;61944;52.538;6.108;2023-01-25T10:58:29;62.55;;;26.25;;
73650;SDS011;61944;52.538;6.108;2023-01-25T11:00:55;57.35;;;23.77;;
73650;SDS011;61944;52.538;6.108;2023-01-25T11:03:20;59.95;;;25.05;;
73650;SDS011;61944;52.538;6.108;2023-01-25T11:05:55;61.25;;;25.63;;
73650;SDS011;61944;52.538;6.108;2023-01-25T11:08:22;64.93;;;24.85;;
73650;SDS011;61944;52.538;6.108;2023-01-25T11:10:50;54.55;;;23.48;;
73650;SDS011;61944;52.538;6.108;2023-01-25T11:15:48;57.90;;;26.60;;
73650;SDS011;61944;52.538;6.108;2023-01-25T11:18:25;59.92;;;25.23;;
73650;SDS011;61944;52.538;6.108;2023-01-25T11:21:06;58.88;;;23.33;;
73650;SDS011;61944;52.538;6.108;2023-01-25T11:23:39;60.25;;;25.05;;
73650;SDS011;61944;52.538;6.108;2023-01-25T11:26:11;57.70;;;22.90;;
73650;SDS011;61944;52.538;6.108;2023-01-25T11:28:37;62.33;;;24.20;;
73650;SDS011;61944;52.538;6.108;2023-01-25T11:31:02;65.70;;;24.85;;
73650;SDS011;61944;52.538;6.108;2023-01-25T11:33:33;59.10;;;24.65;;
73650;SDS011;61944;52.538;6.108;2023-01-25T11:36:05;65.38;;;23.65;;
73650;SDS011;61944;52.538;6.108;2023-01-25T11:38:38;57.97;;;24.40;;
73650;SDS011;61944;52.538;6.108;2023-01-25T11:41:20;56.95;;;24.08;;
73650;SDS011;61944;52.538;6.108;2023-01-25T11:56:06;66.00;;;26.90;;
73650;SDS011;61944;52.538;6.108;2023-01-25T12:01:26;58.72;;;23.45;;
73650;SDS011;61944;52.538;6.108;2023-01-25T12:04:25;65.57;;;26.17;;
73650;SDS011;61944;52.538;6.108;2023-01-25T12:07:32;62.95;;;25.25;;
73650;SDS011;61944;52.538;6.108;2023-01-25T12:16:11;59.58;;;23.67;;
73650;SDS011;61944;52.538;6.108;2023-01-25T12:18:54;67.00;;;26.80;;
73650;SDS011;61944;52.538;6.108;2023-01-25T12:29:44;68.78;;;24.70;;
73650;SDS011;61944;52.538;6.108;2023-01-25T12:32:17;59.97;;;25.42;;
73650;SDS011;61944;52.538;6.108;2023-01-25T12:34:51;64.32;;;24.10;;
73650;SDS011;61944;52.538;6.108;2023-01-25T12:37:31;63.97;;;23.98;;
73650;SDS011;61944;52.538;6.108;2023-01-25T12:40:07;73.43;;;26.20;;
73650;SDS011;61944;52.538;6.108;2023-01-25T12:42:48;68.15;;;26.20;;
73650;SDS011;61944;52.538;6.108;2023-01-25T12:45:21;68.88;;;27.35;;
73650;SDS011;61944;52.538;6.108;2023-01-25T12:47:55;63.08;;;25.98;;
73650;SDS011;61944;52.538;6.108;2023-01-25T12:53:12;68.38;;;25.05;;
73650;SDS011;61944;52.538;6.108;2023-01-25T12:55:35;73.18;;;27.67;;
73650;SDS011;61944;52.538;6.108;2023-01-25T13:00:47;64.78;;;25.25;;
73650;SDS011;61944;52.538;6.108;2023-01-25T13:03:19;69.53;;;27.25;;
73650;SDS011;61944;52.538;6.108;2023-01-25T13:05:57;73.07;;;28.73;;
73650;SDS011;61944;52.538;6.108;2023-01-25T13:11:19;64.88;;;25.70;;
73650;SDS011;61944;52.538;6.108;2023-01-25T13:13:47;82.75;;;28.08;;
73650;SDS011;61944;52.538;6.108;2023-01-25T13:18:54;65.65;;;24.75;;
73650;SDS011;61944;52.538;6.108;2023-01-25T13:21:37;68.63;;;26.88;;
73650;SDS011;61944;52.538;6.108;2023-01-25T13:42:28;69.18;;;27.42;;
73650;SDS011;61944;52.538;6.108;2023-01-25T13:44:55;68.40;;;27.58;;
73650;SDS011;61944;52.538;6.108;2023-01-25T13:47:27;72.65;;;26.98;;
73650;SDS011;61944;52.538;6.108;2023-01-25T13:53:01;74.47;;;28.25;;
73650;SDS011;61944;52.538;6.108;2023-01-25T13:55:42;76.18;;;30.20;;
73650;SDS011;61944;52.538;6.108;2023-01-25T13:58:15;74.38;;;26.63;;
73650;SDS011;61944;52.538;6.108;2023-01-25T14:00:47;69.82;;;26.55;;
73650;SDS011;61944;52.538;6.108;2023-01-25T14:03:32;71.88;;;25.73;;
73650;SDS011;61944;52.538;6.108;2023-01-25T14:06:13;85.25;;;28.83;;
73650;SDS011;61944;52.538;6.108;2023-01-25T14:08:41;78.07;;;29.38;;
73650;SDS011;61944;52.538;6.108;2023-01-25T14:11:16;76.70;;;27.98;;
73650;SDS011;61944;52.538;6.108;2023-01-25T14:19:38;78.47;;;30.23;;
73650;SDS011;61944;52.538;6.108;2023-01-25T14:31:23;75.00;;;28.77;;
73650;SDS011;61944;52.538;6.108;2023-01-25T14:37:16;83.55;;;28.05;;
73650;SDS011;61944;52.538;6.108;2023-01-25T14:39:50;88.40;;;31.90;;
73650;SDS011;61944;52.538;6.108;2023-01-25T14:42:27;81.85;;;33.47;;
73650;SDS011;61944;52.538;6.108;2023-01-25T14:44:58;76.65;;;29.20;;
73650;SDS011;61944;52.538;6.108;2023-01-25T14:47:30;76.15;;;29.20;;
73650;SDS011;61944;52.538;6.108;2023-01-25T14:53:11;92.32;;;33.33;;
73650;SDS011;61944;52.538;6.108;2023-01-25T14:55:43;85.88;;;31.73;;
73650;SDS011;61944;52.538;6.108;2023-01-25T14:58:20;82.82;;;31.38;;
73650;SDS011;61944;52.538;6.108;2023-01-25T15:01:06;76.43;;;29.42;;
73650;SDS011;61944;52.538;6.108;2023-01-25T15:03:40;88.22;;;27.45;;
73650;SDS011;61944;52.538;6.108;2023-01-25T15:06:08;77.88;;;30.35;;
73650;SDS011;61944;52.538;6.108;2023-01-25T15:08:37;87.78;;;29.35;;
73650;SDS011;61944;52.538;6.108;2023-01-25T15:11:04;82.63;;;28.02;;
73650;SDS011;61944;52.538;6.108;2023-01-25T15:14:13;74.93;;;27.77;;
73650;SDS011;61944;52.538;6.108;2023-01-25T15:16:42;79.63;;;28.33;;
73650;SDS011;61944;52.538;6.108;2023-01-25T15:21:46;82.05;;;27.42;;
73650;SDS011;61944;52.538;6.108;2023-01-25T15:24:12;75.63;;;28.48;;
73650;SDS011;61944;52.538;6.108;2023-01-25T15:26:38;76.18;;;27.65;;
73650;SDS011;61944;52.538;6.108;2023-01-25T15:29:09;78.60;;;26.50;;
73650;SDS011;61944;52.538;6.108;2023-01-25T15:31:38;77.03;;;26.02;;
73650;SDS011;61944;52.538;6.108;2023-01-25T15:34:03;79.53;;;30.45;;
73650;SDS011;61944;52.538;6.108;2023-01-25T15:36:30;81.53;;;30.50;;
73650;SDS011;61944;52.538;6.108;2023-01-25T15:38:57;87.88;;;30.52;;
73650;SDS011;61944;52.538;6.108;2023-01-25T15:41:23;79.57;;;31.02;;
73650;SDS011;61944;52.538;6.108;2023-01-25T15:43:49;91.65;;;31.90;;
73650;SDS011;61944;52.538;6.108;2023-01-25T15:46:18;87.50;;;32.47;;
73650;SDS011;61944;52.538;6.108;2023-01-25T15:48:47;88.68;;;32.85;;
73650;SDS011;61944;52.538;6.108;2023-01-25T15:51:14;95.50;;;33.85;;
73650;SDS011;61944;52.538;6.108;2023-01-25T15:53:39;98.57;;;32.60;;
73650;SDS011;61944;52.538;6.108;2023-01-25T15:56:05;100.43;;;34.78;;
73650;SDS011;61944;52.538;6.108;2023-01-25T15:58:37;89.50;;;31.17;;
73650;SDS011;61944;52.538;6.108;2023-01-25T16:01:04;129.18;;;43.15;;
73650;SDS011;61944;52.538;6.108;2023-01-25T16:03:30;103.68;;;38.25;;
73650;SDS011;61944;52.538;6.108;2023-01-25T16:08:40;93.35;;;33.05;;
73650;SDS011;61944;52.538;6.108;2023-01-25T16:11:05;98.68;;;35.40;;
73650;SDS011;61944;52.538;6.108;2023-01-25T16:13:31;89.70;;;32.75;;
73650;SDS011;61944;52.538;6.108;2023-01-25T16:15:56;102.63;;;34.58;;
73650;SDS011;61944;52.538;6.108;2023-01-25T16:18:22;104.13;;;34.60;;
73650;SDS011;61944;52.538;6.108;2023-01-25T16:20:47;93.05;;;35.45;;
73650;SDS011;61944;52.538;6.108;2023-01-25T16:23:12;98.55;;;34.55;;
73650;SDS011;61944;52.538;6.108;2023-01-25T16:25:38;99.95;;;35.25;;
73650;SDS011;61944;52.538;6.108;2023-01-25T16:28:05;104.30;;;35.38;;
73650;SDS011;61944;52.538;6.108;2023-01-25T16:30:37;99.15;;;35.67;;
73650;SDS011;61944;52.538;6.108;2023-01-25T16:33:02;107.57;;;37.67;;